Time;durP1;ratioP1;P1;durP2;ratioP2;P2;SDS_P1;SDS_P2;PMS_P1;PMS_P2;Temp;Humidity;BMP_temperature;BMP_pressure;BME280_temperature;BME280_humidity;BME280_pressure;Samples;Min_cycle;Max_cycle;Signal;HPM_P1;HPM_P2
2021/12/13 00:02:34;;;;;;;;;29.00;28.00;;;;;-147.17;100.00;49983.78;4965252;28;51192;-57
2021/12/13 00:05:07;;;;;;;;;29.25;28.25;;;;;-147.17;100.00;49966.06;4974223;28;52666;-58
2021/12/13 00:07:39;;;;;;;;;27.50;24.25;;;;;-147.17;100.00;49979.84;4973737;28;51181;-57
2021/12/13 00:10:17;;;;;;;;;27.75;25.25;;;;;-147.17;100.00;49954.25;4951029;28;50975;-57
2021/12/13 00:12:50;;;;;;;;;22.75;22.25;;;;;-147.17;100.00;49987.72;4975577;28;51386;-57
2021/12/13 00:15:25;;;;;;;;;20.25;20.25;;;;;-147.17;100.00;49985.75;4972453;28;51093;-57
2021/12/13 00:17:53;;;;;;;;;26.25;24.25;;;;;-147.17;100.00;49985.75;4958051;28;51295;-57
2021/12/13 00:20:36;;;;;;;;;27.50;24.75;;;;;-147.17;100.00;49950.31;4964117;28;51199;-58
2021/12/13 00:23:12;;;;;;;;;30.75;29.00;;;;;-147.17;100.00;49971.97;4977538;28;51353;-57
2021/12/13 00:25:41;;;;;;;;;25.00;23.75;;;;;-147.17;100.00;49997.56;4970873;28;51167;-57
2021/12/13 00:28:13;;;;;;;;;28.50;24.00;;;;;-147.17;100.00;49950.31;4973665;28;50869;-57
2021/12/13 00:30:56;;;;;;;;;23.50;23.00;;;;;-147.17;100.00;49966.06;4965758;28;51145;-55
2021/12/13 00:33:59;;;;;;;;;29.00;25.75;;;;;-147.17;100.00;49977.88;4974198;28;51136;-56
2021/12/13 00:36:31;;;;;;;;;22.25;21.25;;;;;-147.17;100.00;49981.81;4970332;28;51869;-56
2021/12/13 00:39:05;;;;;;;;;23.25;21.00;;;;;-147.17;100.00;49973.94;4971303;28;51313;-57
2021/12/13 00:41:31;;;;;;;;;26.00;23.00;;;;;-147.17;100.00;49942.44;4969962;28;51226;-56
2021/12/13 00:44:04;;;;;;;;;23.00;20.75;;;;;-147.17;100.00;49993.63;4964998;28;51272;-57
2021/12/13 00:46:31;;;;;;;;;23.25;22.00;;;;;-147.17;100.00;49958.19;4973464;28;52954;-56
2021/12/13 00:49:00;;;;;;;;;26.75;22.75;;;;;-147.17;100.00;49954.25;4975292;28;51229;-56
2021/12/13 00:51:30;;;;;;;;;22.50;21.50;;;;;-147.17;100.00;50025.13;4975168;28;51062;-56
2021/12/13 00:54:00;;;;;;;;;24.00;21.75;;;;;-147.17;100.00;49989.69;4973887;28;51114;-56
2021/12/13 00:57:06;;;;;;;;;19.75;19.00;;;;;-147.17;100.00;49958.19;4968472;28;51948;-57
2021/12/13 00:59:46;;;;;;;;;20.75;19.50;;;;;-147.17;100.00;50009.38;4965475;28;51166;-56
2021/12/13 01:02:28;;;;;;;;;19.00;16.75;;;;;-147.17;100.00;49977.88;4971129;28;51374;-56
2021/12/13 01:04:57;;;;;;;;;19.50;18.50;;;;;-147.17;100.00;49987.72;4972410;28;51165;-57
2021/12/13 01:08:19;;;;;;;;;22.75;20.50;;;;;-147.17;100.00;49999.53;4971550;28;51940;-56
2021/12/13 01:10:54;;;;;;;;;21.00;19.00;;;;;-147.17;100.00;49958.19;4932578;28;51360;-58
2021/12/13 01:13:23;;;;;;;;;26.00;23.75;;;;;-147.17;100.00;49991.66;4925045;28;51385;-56
2021/12/13 01:16:12;;;;;;;;;23.50;20.75;;;;;-147.17;100.00;50011.34;4954857;28;51123;-55
2021/12/13 01:19:24;;;;;;;;;20.33;18.67;;;;;-147.17;100.00;49981.81;4971120;28;52642;-55
2021/12/13 01:22:29;;;;;;;;;23.25;19.00;;;;;-147.17;100.00;49981.81;4972411;28;50991;-55
2021/12/13 01:27:50;;;;;;;;;21.50;21.00;;;;;-147.17;100.00;49973.94;4977151;28;51186;-55
2021/12/13 01:30:22;;;;;;;;;18.50;17.25;;;;;-147.17;100.00;49968.03;4974280;28;53077;-57
2021/12/13 01:32:52;;;;;;;;;22.00;18.25;;;;;-147.17;100.00;49979.84;4958347;28;51106;-57
2021/12/13 01:35:23;;;;;;;;;22.00;19.50;;;;;-147.17;100.00;50005.44;4974303;28;51123;-55
2021/12/13 01:37:53;;;;;;;;;22.75;21.00;;;;;-147.17;100.00;49975.91;4962200;28;51115;-57
2021/12/13 01:40:23;;;;;;;;;19.25;19.25;;;;;-147.17;100.00;49985.75;4973401;28;51129;-57
2021/12/13 01:43:06;;;;;;;;;19.25;18.00;;;;;-147.17;100.00;49952.28;4974127;28;51051;-56
2021/12/13 01:45:36;;;;;;;;;19.50;18.75;;;;;-147.17;100.00;50013.31;4989150;28;50976;-56
2021/12/13 01:48:02;;;;;;;;;23.25;19.00;;;;;-147.17;100.00;49962.13;4972149;28;51613;-57
2021/12/13 01:50:49;;;;;;;;;20.50;18.75;;;;;-147.17;100.00;49983.78;4972445;28;51832;-57
2021/12/13 01:53:17;;;;;;;;;21.00;18.75;;;;;-147.17;100.00;49970.00;4966921;28;51192;-58
2021/12/13 01:55:47;;;;;;;;;23.50;21.25;;;;;-147.17;100.00;49968.03;4968803;28;51167;-58
2021/12/13 02:01:11;;;;;;;;;19.75;18.25;;;;;-147.17;100.00;49950.31;4969145;28;51614;-56
2021/12/13 02:04:02;;;;;;;;;20.00;17.75;;;;;-147.17;100.00;49954.25;4971079;28;51337;-56
2021/12/13 02:06:39;;;;;;;;;21.75;21.25;;;;;-147.17;100.00;49977.88;4972769;28;51067;-55
2021/12/13 02:09:19;;;;;;;;;17.25;16.75;;;;;-147.17;100.00;49954.25;4959375;28;51129;-51
2021/12/13 02:11:49;;;;;;;;;20.00;19.25;;;;;-147.17;100.00;49987.72;4966860;28;52413;-55
2021/12/13 02:14:19;;;;;;;;;23.00;19.25;;;;;-147.17;100.00;49942.44;4965744;28;51957;-58
2021/12/13 02:17:09;;;;;;;;;21.00;17.25;;;;;-147.17;100.00;49966.06;4967858;28;51124;-56
2021/12/13 02:19:57;;;;;;;;;19.50;19.50;;;;;-147.17;100.00;49979.84;4978255;28;51427;-54
2021/12/13 02:22:42;;;;;;;;;19.00;18.00;;;;;-147.17;100.00;49960.16;4961565;28;51835;-56
2021/12/13 02:25:22;;;;;;;;;25.00;22.25;;;;;-147.17;100.00;49946.38;4965996;28;51072;-56
2021/12/13 02:28:03;;;;;;;;;17.25;16.25;;;;;-147.17;100.00;49989.69;4975680;28;51106;-56
2021/12/13 02:30:43;;;;;;;;;21.75;19.75;;;;;-147.17;100.00;49973.94;4973644;28;51167;-57
2021/12/13 02:33:13;;;;;;;;;20.50;17.75;;;;;-147.17;100.00;49942.44;4968955;28;51303;-58
2021/12/13 02:35:44;;;;;;;;;17.50;17.00;;;;;-147.17;100.00;49938.50;4960899;28;51277;-58
2021/12/13 02:38:11;;;;;;;;;22.25;21.50;;;;;-147.17;100.00;49934.56;4963156;28;51131;-58
2021/12/13 02:40:37;;;;;;;;;24.25;21.50;;;;;-147.17;100.00;49977.88;4967643;28;51444;-57
2021/12/13 02:43:06;;;;;;;;;21.25;21.00;;;;;-147.17;100.00;49936.53;4972759;28;51994;-57
2021/12/13 02:45:42;;;;;;;;;21.25;20.75;;;;;-147.17;100.00;49975.91;4973304;28;51559;-56
2021/12/13 02:48:21;;;;;;;;;22.50;21.00;;;;;-147.17;100.00;49950.31;4970937;28;51364;-57
2021/12/13 02:50:59;;;;;;;;;22.50;22.00;;;;;-147.17;100.00;49970.00;4970592;28;51240;-57
2021/12/13 02:53:38;;;;;;;;;21.50;19.75;;;;;-147.17;100.00;49946.38;4964303;28;51161;-57
2021/12/13 02:56:05;;;;;;;;;26.25;23.00;;;;;-147.17;100.00;49940.47;4969178;28;51023;-57
2021/12/13 02:58:32;;;;;;;;;23.25;21.50;;;;;-147.17;100.00;49954.25;4970697;28;51247;-57
2021/12/13 03:01:11;;;;;;;;;26.25;21.50;;;;;-147.17;100.00;49950.31;4971679;28;51352;-55
2021/12/13 03:03:41;;;;;;;;;20.50;18.50;;;;;-147.17;100.00;49958.19;4964220;28;51196;-56
2021/12/13 03:06:10;;;;;;;;;19.25;19.00;;;;;-147.17;100.00;49977.88;4969817;28;51060;-57
2021/12/13 03:08:42;;;;;;;;;20.50;19.25;;;;;-147.17;100.00;49964.09;4970478;28;50940;-57
2021/12/13 03:11:14;;;;;;;;;20.50;20.00;;;;;-147.17;100.00;49983.78;4970968;28;53740;-56
2021/12/13 03:13:39;;;;;;;;;20.00;19.00;;;;;-147.17;100.00;49985.75;4971184;28;52971;-57
2021/12/13 03:16:11;;;;;;;;;18.50;18.00;;;;;-147.17;100.00;49948.34;4973048;28;51279;-57
2021/12/13 03:19:20;;;;;;;;;18.00;15.75;;;;;-147.17;100.00;49977.88;4969478;28;51412;-57
2021/12/13 03:21:51;;;;;;;;;22.50;20.50;;;;;-147.17;100.00;49950.31;4964148;28;51533;-57
2021/12/13 03:24:22;;;;;;;;;19.50;18.75;;;;;-147.17;100.00;49954.25;4972234;28;51291;-56
2021/12/13 03:27:03;;;;;;;;;17.25;16.25;;;;;-147.17;100.00;49952.28;4968089;28;51037;-56
2021/12/13 03:29:50;;;;;;;;;20.25;17.75;;;;;-147.17;100.00;49938.50;4973095;28;51221;-56
2021/12/13 03:32:16;;;;;;;;;18.75;18.50;;;;;-147.17;100.00;49973.94;4971751;28;51252;-56
2021/12/13 03:35:06;;;;;;;;;21.25;20.50;;;;;-147.17;100.00;49928.66;4972628;28;50930;-56
2021/12/13 03:37:32;;;;;;;;;20.50;18.25;;;;;-147.17;100.00;49950.31;4969054;28;51132;-55
2021/12/13 03:40:01;;;;;;;;;19.00;18.75;;;;;-147.17;100.00;49946.38;4963605;28;51083;-58
2021/12/13 03:42:43;;;;;;;;;19.75;17.75;;;;;-147.17;100.00;49962.13;4956806;28;51052;-57
2021/12/13 03:45:19;;;;;;;;;17.25;17.00;;;;;-147.17;100.00;49977.88;4972494;28;51079;-57
2021/12/13 03:47:50;;;;;;;;;18.25;17.00;;;;;-147.17;100.00;49968.03;4971496;28;51066;-57
2021/12/13 03:50:20;;;;;;;;;18.25;17.75;;;;;-147.17;100.00;49962.13;4962737;28;51228;-57
2021/12/13 03:52:49;;;;;;;;;18.25;17.50;;;;;-147.17;100.00;49956.22;4972643;28;51069;-58
2021/12/13 03:55:19;;;;;;;;;19.75;17.25;;;;;-147.17;100.00;49942.44;4972036;28;52129;-56
2021/12/13 03:57:48;;;;;;;;;19.25;18.25;;;;;-147.17;100.00;49954.25;4967380;28;51072;-56
2021/12/13 04:00:18;;;;;;;;;22.25;17.75;;;;;-147.17;100.00;49970.00;4971981;28;51010;-57
2021/12/13 04:02:46;;;;;;;;;21.75;18.25;;;;;-147.17;100.00;49960.16;4967001;28;52160;-57
2021/12/13 04:05:18;;;;;;;;;18.75;17.75;;;;;-147.17;100.00;49977.88;4970415;28;52875;-57
2021/12/13 04:07:52;;;;;;;;;21.00;19.25;;;;;-147.17;100.00;49993.63;4972134;28;51283;-56
2021/12/13 04:10:21;;;;;;;;;23.75;19.00;;;;;-147.17;100.00;49977.88;4971134;28;51069;-56
2021/12/13 04:12:52;;;;;;;;;20.25;17.25;;;;;-147.17;100.00;49977.88;4967132;28;51082;-56
2021/12/13 04:15:28;;;;;;;;;17.00;14.33;;;;;-147.17;100.00;49970.00;4970484;28;54005;-59
2021/12/13 04:20:31;;;;;;;;;15.00;14.00;;;;;-147.17;100.00;49970.00;4961996;28;51015;-57
2021/12/13 04:23:09;;;;;;;;;19.33;14.33;;;;;-147.17;100.00;49983.78;4971464;28;51366;-57
2021/12/13 04:25:39;;;;;;;;;14.75;14.25;;;;;-147.17;100.00;49926.69;4955979;28;52460;-56
2021/12/13 04:28:31;;;;;;;;;14.25;13.25;;;;;-147.17;100.00;49960.16;4971604;28;51183;-56
2021/12/13 04:31:00;;;;;;;;;13.33;12.33;;;;;-147.17;100.00;49979.84;4972268;28;50983;-57
2021/12/13 04:33:29;;;;;;;;;13.75;13.50;;;;;-147.17;100.00;50005.44;4964169;28;51229;-57
2021/12/13 04:35:59;;;;;;;;;16.75;14.75;;;;;-147.17;100.00;49979.84;4973979;28;51127;-57
2021/12/13 04:38:35;;;;;;;;;15.75;14.75;;;;;-147.17;100.00;50021.19;4974204;28;51269;-57
2021/12/13 04:41:02;;;;;;;;;13.00;12.67;;;;;-147.17;100.00;49966.06;4974692;28;50976;-57
2021/12/13 04:43:28;;;;;;;;;13.50;13.00;;;;;-147.17;100.00;49977.88;4967096;28;50890;-57
2021/12/13 04:45:58;;;;;;;;;14.25;13.75;;;;;-147.17;100.00;49999.53;4974131;28;51867;-56
2021/12/13 04:48:29;;;;;;;;;11.75;11.50;;;;;-147.17;100.00;49999.53;4968715;28;51333;-58
2021/12/13 04:50:57;;;;;;;;;14.50;14.25;;;;;-147.17;100.00;50003.47;4966240;28;51200;-56
2021/12/13 04:53:32;;;;;;;;;13.25;12.00;;;;;-147.17;100.00;50013.31;4975434;28;51346;-57
2021/12/13 04:56:01;;;;;;;;;14.00;13.25;;;;;-147.17;100.00;50015.28;4972772;28;52967;-57
2021/12/13 04:58:28;;;;;;;;;20.50;18.25;;;;;-147.17;100.00;50003.47;4971092;28;50953;-57
2021/12/13 05:00:58;;;;;;;;;18.00;17.25;;;;;-147.17;100.00;49970.00;4958151;28;51098;-58
2021/12/13 05:03:30;;;;;;;;;13.75;13.75;;;;;-147.17;100.00;49973.94;4967077;28;51631;-57
2021/12/13 05:06:04;;;;;;;;;18.75;17.75;;;;;-147.17;100.00;49966.06;4964518;28;51989;-57
2021/12/13 05:08:30;;;;;;;;;11.00;10.50;;;;;-147.17;100.00;49966.06;4983205;28;52168;-57
2021/12/13 05:10:56;;;;;;;;;18.00;14.75;;;;;-147.17;100.00;50009.38;4972884;28;51272;-57
2021/12/13 05:13:29;;;;;;;;;20.25;18.00;;;;;-147.17;100.00;49973.94;4961395;28;51340;-57
2021/12/13 05:16:08;;;;;;;;;17.00;15.25;;;;;-147.17;100.00;49934.56;4959381;28;51675;-57
2021/12/13 05:18:43;;;;;;;;;17.75;16.25;;;;;-147.17;100.00;50013.31;4973634;28;50979;-57
2021/12/13 05:21:23;;;;;;;;;15.25;15.25;;;;;-147.17;100.00;50003.47;4965625;28;51213;-57
2021/12/13 05:23:58;;;;;;;;;16.25;12.50;;;;;-147.17;100.00;49981.81;4961346;28;51251;-57
2021/12/13 05:26:29;;;;;;;;;14.50;13.50;;;;;-147.17;100.00;49993.63;4972841;28;51126;-57
2021/12/13 05:28:57;;;;;;;;;16.50;15.00;;;;;-147.17;100.00;50013.31;4969984;28;51244;-57
2021/12/13 05:31:24;;;;;;;;;16.25;14.50;;;;;-147.17;100.00;50017.25;4965505;28;51184;-57
2021/12/13 05:33:54;;;;;;;;;24.75;23.25;;;;;-147.17;100.00;49981.81;4972016;28;51205;-57
2021/12/13 05:36:30;;;;;;;;;13.75;13.00;;;;;-147.17;100.00;50033.00;4970532;28;52940;-57
2021/12/13 05:39:15;;;;;;;;;17.50;16.75;;;;;-147.17;100.00;49981.81;4967960;28;51573;-57
2021/12/13 05:42:15;;;;;;;;;19.25;16.75;;;;;-147.17;100.00;50001.50;4964461;28;51150;-56
2021/12/13 05:44:43;;;;;;;;;15.50;15.50;;;;;-147.17;100.00;50015.28;4961189;28;51053;-57
2021/12/13 05:47:21;;;;;;;;;14.00;13.25;;;;;-147.17;100.00;50009.38;4972246;28;51873;-56
2021/12/13 05:49:48;;;;;;;;;15.25;14.50;;;;;-147.17;100.00;49983.78;4972434;28;50916;-57
2021/12/13 05:52:16;;;;;;;;;21.50;18.50;;;;;-147.17;100.00;49983.78;4974359;28;51627;-57
2021/12/13 05:54:57;;;;;;;;;16.50;14.75;;;;;-147.17;100.00;50009.38;4968171;28;51222;-57
2021/12/13 05:57:34;;;;;;;;;16.50;15.00;;;;;-147.17;100.00;49993.63;4972924;28;51420;-57
2021/12/13 06:00:08;;;;;;;;;16.50;16.25;;;;;-147.17;100.00;50007.41;4966753;28;51292;-55
2021/12/13 06:03:06;;;;;;;;;14.75;11.50;;;;;-147.17;100.00;50003.47;4961025;28;51311;-57
2021/12/13 06:05:43;;;;;;;;;23.50;17.75;;;;;-147.17;100.00;50003.47;4964323;28;51222;-58
2021/12/13 06:08:17;;;;;;;;;12.50;11.75;;;;;-147.17;100.00;50005.44;4961107;28;52014;-58
2021/12/13 06:11:01;;;;;;;;;18.75;18.00;;;;;-147.17;100.00;50009.38;4977401;28;51341;-58
2021/12/13 06:13:42;;;;;;;;;19.00;17.00;;;;;-147.17;100.00;49991.66;4968139;28;51158;-58
2021/12/13 06:16:18;;;;;;;;;16.00;14.75;;;;;-147.17;100.00;50015.28;4968822;28;51234;-57
2021/12/13 06:19:03;;;;;;;;;18.25;17.75;;;;;-147.17;100.00;50056.63;4969362;28;51125;-58
2021/12/13 06:22:07;;;;;;;;;15.75;14.50;;;;;-147.17;100.00;50009.38;4973249;28;51104;-58
2021/12/13 06:24:46;;;;;;;;;15.25;13.00;;;;;-147.17;100.00;49997.56;4973360;28;51001;-58
2021/12/13 06:27:19;;;;;;;;;16.75;15.25;;;;;-147.17;100.00;50040.88;4971233;28;51408;-58
2021/12/13 06:29:47;;;;;;;;;16.75;16.75;;;;;-147.17;100.00;50019.22;4973310;28;51855;-58
2021/12/13 06:32:29;;;;;;;;;17.00;14.25;;;;;-147.17;100.00;50005.44;4971342;28;51168;-57
2021/12/13 06:34:55;;;;;;;;;19.00;17.00;;;;;-147.17;100.00;49981.81;4984198;28;50957;-58
2021/12/13 06:37:28;;;;;;;;;15.50;14.25;;;;;-147.17;100.00;50017.25;4964627;28;51177;-58
2021/12/13 06:40:14;;;;;;;;;18.00;16.50;;;;;-147.17;100.00;49985.75;4982171;28;52884;-57
2021/12/13 06:42:39;;;;;;;;;17.25;16.25;;;;;-147.17;100.00;50005.44;4964866;28;51199;-58
2021/12/13 06:45:19;;;;;;;;;18.00;17.00;;;;;-147.17;100.00;50005.44;4979273;28;51190;-57
2021/12/13 06:47:51;;;;;;;;;17.75;17.00;;;;;-147.17;100.00;49977.88;4967907;28;51074;-57
2021/12/13 06:50:31;;;;;;;;;11.25;11.00;;;;;-147.17;100.00;50017.25;4971415;28;51993;-57
2021/12/13 06:53:29;;;;;;;;;17.50;13.50;;;;;-147.17;100.00;50040.88;4968334;28;51210;-57
2021/12/13 06:55:54;;;;;;;;;14.25;13.25;;;;;-147.17;100.00;50033.00;4934306;28;51253;-57
2021/12/13 06:58:27;;;;;;;;;16.50;16.00;;;;;-147.17;100.00;50021.19;4970798;28;51127;-57
2021/12/13 07:00:57;;;;;;;;;15.75;15.25;;;;;-147.17;100.00;50025.13;4971230;28;51217;-57
2021/12/13 07:03:27;;;;;;;;;18.25;16.00;;;;;-147.17;100.00;50007.41;4970785;28;51199;-57
2021/12/13 07:05:57;;;;;;;;;11.00;11.00;;;;;-147.17;100.00;50042.84;4964532;28;51122;-57
2021/12/13 07:08:33;;;;;;;;;15.00;13.75;;;;;-147.17;100.00;50034.97;4970425;28;51145;-57
2021/12/13 07:11:17;;;;;;;;;13.00;11.75;;;;;-147.17;100.00;50017.25;4970641;28;52110;-58
2021/12/13 07:14:00;;;;;;;;;12.00;12.00;;;;;-147.17;100.00;50029.06;4966613;28;51161;-56
2021/12/13 07:16:32;;;;;;;;;13.75;12.75;;;;;-147.17;100.00;50015.28;4966059;28;51451;-57
2021/12/13 07:19:07;;;;;;;;;10.00;9.75;;;;;-147.17;100.00;50038.91;4970927;28;50986;-58
2021/12/13 07:21:43;;;;;;;;;14.25;13.00;;;;;-147.17;100.00;50033.00;4968404;28;51896;-58
2021/12/13 07:24:15;;;;;;;;;12.50;12.00;;;;;-147.17;100.00;50023.16;4968653;28;51091;-58
2021/12/13 07:26:49;;;;;;;;;11.00;9.67;;;;;-147.17;100.00;50052.69;4960439;28;51344;-58
2021/12/13 07:29:27;;;;;;;;;12.00;10.67;;;;;-147.17;100.00;50021.19;4964389;28;51154;-58
2021/12/13 07:32:17;;;;;;;;;10.00;9.00;;;;;-147.17;100.00;50044.81;4971368;28;53278;-57
2021/12/13 07:34:59;;;;;;;;;10.75;10.00;;;;;-147.17;100.00;50050.72;4969794;28;51346;-56
2021/12/13 07:37:40;;;;;;;;;8.75;8.50;;;;;-147.17;100.00;50070.41;4967762;28;51114;-57
2021/12/13 07:40:25;;;;;;;;;5.00;5.00;;;;;-147.17;100.00;50029.06;4964073;28;51045;-56
2021/12/13 07:43:12;;;;;;;;;8.00;8.00;;;;;-147.17;100.00;50031.03;4974610;28;51916;-56
2021/12/13 07:46:01;;;;;;;;;5.00;5.00;;;;;-147.17;100.00;50023.16;4969882;28;51065;-58
2021/12/13 07:48:32;;;;;;;;;5.00;4.00;;;;;-147.17;100.00;50023.16;5231307;22;51274;-58
2021/12/13 07:51:13;;;;;;;;;5.00;5.00;;;;;-147.17;100.00;50036.94;4966030;28;51791;-58
2021/12/13 07:53:47;;;;;;;;;6.67;5.67;;;;;-147.17;100.00;50050.72;4961258;28;51329;-54
2021/12/13 07:56:31;;;;;;;;;11.25;10.75;;;;;-147.17;100.00;50023.16;4965389;28;51408;-56
2021/12/13 07:59:34;;;;;;;;;12.25;11.00;;;;;-147.17;100.00;50033.00;4958193;28;51318;-56
2021/12/13 08:02:05;;;;;;;;;11.00;9.50;;;;;-147.17;100.00;50025.13;4954572;28;51260;-57
2021/12/13 08:05:13;;;;;;;;;12.50;11.00;;;;;-147.17;100.00;50042.84;4958153;28;52168;-57
2021/12/13 08:07:45;;;;;;;;;13.50;13.50;;;;;-147.17;100.00;50056.63;4972552;28;51156;-57
2021/12/13 08:10:31;;;;;;;;;11.00;11.00;;;;;-147.17;100.00;50031.03;4970992;28;51230;-56
2021/12/13 08:13:11;;;;;;;;;12.75;11.50;;;;;-147.17;100.00;50023.16;4975930;28;51166;-55
2021/12/13 08:15:43;;;;;;;;;11.50;11.00;;;;;-147.17;100.00;50029.06;4975313;28;51744;-56
2021/12/13 08:18:32;;;;;;;;;14.75;13.00;;;;;-147.17;100.00;50066.47;4975529;28;51037;-55
2021/12/13 08:21:02;;;;;;;;;12.75;12.25;;;;;-147.17;100.00;50003.47;4975221;28;51037;-57
2021/12/13 08:23:38;;;;;;;;;17.00;16.50;;;;;-147.17;100.00;50048.75;4975495;28;51188;-57
2021/12/13 08:26:08;;;;;;;;;18.00;17.25;;;;;-147.17;100.00;50025.13;4975214;28;52918;-55
2021/12/13 08:28:43;;;;;;;;;21.50;20.00;;;;;-147.17;100.00;50017.25;4975134;28;51139;-56
2021/12/13 08:31:17;;;;;;;;;14.50;13.50;;;;;-147.17;100.00;50017.25;4963479;28;51122;-56
2021/12/13 08:33:47;;;;;;;;;16.25;15.00;;;;;-147.17;100.00;50033.00;4953505;28;51316;-58
2021/12/13 08:36:14;;;;;;;;;17.25;14.50;;;;;-147.17;100.00;50007.41;4956257;28;53029;-57
2021/12/13 08:38:50;;;;;;;;;15.75;14.25;;;;;-147.17;100.00;50033.00;4955952;28;50981;-55
2021/12/13 08:41:15;;;;;;;;;12.50;11.50;;;;;-147.17;100.00;50017.25;4955906;28;51028;-57
2021/12/13 08:43:51;;;;;;;;;14.75;11.00;;;;;-147.17;100.00;50025.13;4971539;28;51140;-55
2021/12/13 08:46:40;;;;;;;;;14.25;13.00;;;;;-147.17;100.00;49991.66;4965518;28;51710;-54
2021/12/13 08:49:27;;;;;;;;;17.00;16.25;;;;;-147.17;100.00;50011.34;4972859;28;51048;-55
2021/12/13 08:52:09;;;;;;;;;14.00;12.50;;;;;-147.17;100.00;49987.72;4962809;28;51124;-55
2021/12/13 08:54:40;;;;;;;;;13.00;11.00;;;;;-147.17;100.00;49985.75;4969658;28;51421;-55
2021/12/13 08:57:10;;;;;;;;;12.00;11.33;;;;;-147.17;100.00;50017.25;4958665;28;51945;-55
2021/12/13 08:59:50;;;;;;;;;11.25;10.00;;;;;-147.17;100.00;49970.00;4973973;28;51244;-58
2021/12/13 09:02:16;;;;;;;;;12.00;10.75;;;;;-147.17;100.00;49997.56;4971224;28;51308;-57
2021/12/13 09:04:55;;;;;;;;;11.75;11.50;;;;;-147.17;100.00;49993.63;4957630;28;51133;-56
2021/12/13 09:07:24;;;;;;;;;14.50;14.50;;;;;-147.17;100.00;49977.88;4967182;28;52275;-56
2021/12/13 09:09:49;;;;;;;;;12.75;11.75;;;;;-147.17;100.00;49999.53;4964506;28;51194;-56
2021/12/13 09:12:37;;;;;;;;;12.00;11.00;;;;;-147.17;100.00;50025.13;4973277;28;51218;-55
2021/12/13 09:15:26;;;;;;;;;7.67;7.67;;;;;-147.17;100.00;50019.22;4974588;28;51121;-57
2021/12/13 09:17:52;;;;;;;;;8.00;6.33;;;;;-147.17;100.00;50070.41;4972427;28;52926;-56
2021/12/13 09:20:28;;;;;;;;;9.33;9.00;;;;;-147.17;100.00;50031.03;4973677;28;51134;-54
2021/12/13 09:23:07;;;;;;;;;7.00;6.00;;;;;-147.17;100.00;50040.88;4959032;28;51180;-55
2021/12/13 09:25:39;;;;;;;;;5.00;5.00;;;;;-147.17;100.00;50048.75;4954510;28;51242;-56
2021/12/13 09:28:04;;;;;;;;;4.00;4.00;;;;;-147.17;100.00;50076.31;4965273;28;52390;-56
2021/12/13 09:30:57;;;;;;;;;6.33;6.33;;;;;-147.17;100.00;50088.13;4958834;28;51893;-57
2021/12/13 09:33:34;;;;;;;;;5.00;4.33;;;;;-147.17;100.00;50109.75;4965975;28;51030;-57
2021/12/13 09:36:05;;;;;;;;;4.67;4.00;;;;;-147.17;100.00;50088.13;4970010;28;51335;-56
2021/12/13 09:38:39;;;;;;;;;6.00;6.00;;;;;-147.17;100.00;50080.25;4968616;28;52027;-56
2021/12/13 09:41:16;;;;;;;;;4.33;4.33;;;;;-147.17;100.00;50111.72;4971006;28;51114;-56
2021/12/13 09:43:46;;;;;;;;;6.00;6.00;;;;;-147.17;100.00;50119.59;4972327;28;51132;-56
2021/12/13 09:46:14;;;;;;;;;9.00;8.67;;;;;-147.17;100.00;50117.63;4965277;28;50997;-55
2021/12/13 09:48:48;;;;;;;;;10.00;10.00;;;;;-147.17;100.00;50129.44;4973449;28;51125;-56
2021/12/13 09:51:22;;;;;;;;;8.67;6.33;;;;;-147.17;100.00;50111.72;4971638;28;51127;-57
2021/12/13 09:54:04;;;;;;;;;8.00;8.00;;;;;-147.17;100.00;50084.19;4971808;28;51110;-58
2021/12/13 09:56:36;;;;;;;;;3.00;3.00;;;;;-147.17;100.00;50131.41;4973726;28;51337;-58
2021/12/13 09:59:12;;;;;;;;;9.00;7.00;;;;;-147.17;100.00;50176.69;4976118;28;52379;-59
2021/12/13 10:01:40;;;;;;;;;8.00;7.67;;;;;-147.17;100.00;50151.09;4969767;28;51323;-56
2021/12/13 10:04:10;;;;;;;;;2.33;2.33;;;;;-147.17;100.00;50166.84;4968566;28;51090;-58
2021/12/13 10:06:40;;;;;;;;;2.00;1.67;;;;;-147.17;100.00;50194.41;4954629;28;51011;-56
2021/12/13 10:09:35;;;;;;;;;2.00;2.00;;;;;-147.17;100.00;50137.31;4968903;28;52090;-56
2021/12/13 10:12:17;;;;;;;;;4.67;3.33;;;;;-147.17;100.00;50139.28;4973782;28;51090;-57
2021/12/13 10:14:48;;;;;;;;;5.33;5.00;;;;;-147.17;100.00;50186.53;4965985;28;51086;-57
2021/12/13 10:17:16;;;;;;;;;3.00;3.00;;;;;-147.17;100.00;50182.59;4973448;28;51041;-57
2021/12/13 10:19:46;;;;;;;;;2.67;2.67;;;;;-147.17;100.00;50170.78;4969218;28;51962;-58
2021/12/13 10:22:14;;;;;;;;;3.67;3.67;;;;;-147.17;100.00;50194.41;5219039;22;51045;-58
2021/12/13 10:24:44;;;;;;;;;4.00;4.00;;;;;-147.17;100.00;50155.03;4965352;28;51237;-56
2021/12/13 10:27:12;;;;;;;;;4.00;4.00;;;;;-147.17;100.00;50145.19;4970943;28;51197;-58
2021/12/13 10:29:44;;;;;;;;;5.67;4.00;;;;;-147.17;100.00;50143.22;4961356;28;51140;-59
2021/12/13 10:32:33;;;;;;;;;4.67;4.00;;;;;-147.17;100.00;50141.25;4973289;28;51095;-57
2021/12/13 10:35:12;;;;;;;;;3.00;3.00;;;;;-147.17;100.00;50123.53;4971458;28;51261;-58
2021/12/13 10:37:42;;;;;;;;;3.67;3.00;;;;;-147.17;100.00;50145.19;4960168;28;51093;-58
2021/12/13 10:40:32;;;;;;;;;2.00;2.00;;;;;-147.17;100.00;50166.84;5198087;23;52120;-57
2021/12/13 10:43:03;;;;;;;;;4.67;3.33;;;;;-147.17;100.00;50172.75;4989447;28;51266;-56
2021/12/13 10:45:34;;;;;;;;;4.00;3.00;;;;;-147.17;100.00;50172.75;4981429;28;50935;-56
2021/12/13 10:48:05;;;;;;;;;3.00;3.00;;;;;-147.17;100.00;50145.19;4990191;28;51384;-58
2021/12/13 10:50:55;;;;;;;;;5.00;3.67;;;;;-147.17;100.00;50143.22;4963557;28;51693;-58
2021/12/13 10:53:23;;;;;;;;;6.33;4.67;;;;;-147.17;100.00;50121.56;4966460;28;51220;-58
2021/12/13 10:55:54;;;;;;;;;2.33;2.33;;;;;-147.17;100.00;50125.50;4958763;28;51064;-58
2021/12/13 10:58:24;;;;;;;;;4.00;4.00;;;;;-147.17;100.00;50129.44;4971163;28;51162;-58
2021/12/13 11:00:55;;;;;;;;;4.00;4.00;;;;;-147.17;100.00;50162.91;4961301;28;52088;-57
2021/12/13 11:03:23;;;;;;;;;4.00;3.00;;;;;-147.17;100.00;50139.28;4968671;28;51842;-57
2021/12/13 11:05:50;;;;;;;;;3.33;3.33;;;;;-147.17;100.00;50147.16;4964051;28;51149;-56
2021/12/13 11:08:19;;;;;;;;;5.00;5.00;;;;;-147.17;100.00;50131.41;4967479;28;51113;-58
2021/12/13 11:10:55;;;;;;;;;4.00;4.00;;;;;-147.17;100.00;50139.28;4970739;28;51267;-57
2021/12/13 11:13:26;;;;;;;;;8.75;7.50;;;;;-147.17;100.00;50143.22;4963503;28;51009;-56
2021/12/13 11:15:58;;;;;;;;;8.00;7.67;;;;;-147.17;100.00;50115.66;4960212;28;51087;-55
2021/12/13 11:18:28;;;;;;;;;7.00;6.33;;;;;-147.17;100.00;50123.53;4953186;28;51138;-55
2021/12/13 11:20:59;;;;;;;;;9.50;7.75;;;;;-147.17;100.00;50109.75;4959578;28;51179;-56
2021/12/13 11:23:25;;;;;;;;;10.67;8.33;;;;;-147.17;100.00;50095.97;4952876;28;51050;-55
2021/12/13 11:26:01;;;;;;;;;5.00;5.00;;;;;-147.17;100.00;50111.72;4952647;28;51103;-56
2021/12/13 11:28:29;;;;;;;;;8.67;8.33;;;;;-147.17;100.00;50131.41;4964284;28;51012;-57
2021/12/13 11:30:56;;;;;;;;;9.00;8.00;;;;;-147.17;100.00;50099.91;4952712;28;51994;-56
2021/12/13 11:33:37;;;;;;;;;4.67;4.00;;;;;-147.17;100.00;50086.16;4955072;28;51152;-57
2021/12/13 11:36:08;;;;;;;;;5.00;5.00;;;;;-147.17;100.00;50115.66;4958016;28;51336;-57
2021/12/13 11:39:06;;;;;;;;;8.00;7.33;;;;;-147.17;100.00;50115.66;4985902;28;51334;-55
2021/12/13 11:41:59;;;;;;;;;7.33;5.00;;;;;-147.17;100.00;50107.78;4959559;28;52989;-56
2021/12/13 11:44:55;;;;;;;;;5.00;5.00;;;;;-147.17;100.00;50084.19;4970390;28;51286;-57